createdAt,value
2018-11-06T00:00:54.267Z,91.30
2018-11-06T00:03:27.524Z,91.40
2018-11-06T00:05:55.048Z,91.40
2018-11-06T00:08:22.609Z,91.40
2018-11-06T00:10:50.193Z,91.40
2018-11-06T00:13:17.798Z,91.40
2018-11-06T00:15:45.283Z,91.50
2018-11-06T00:18:12.760Z,91.50
2018-11-06T00:20:40.354Z,91.80
2018-11-06T00:23:07.805Z,91.90
2018-11-06T00:25:35.359Z,92.00
2018-11-06T00:28:02.862Z,92.00
2018-11-06T00:30:30.438Z,92.10
2018-11-06T00:32:57.926Z,92.00
2018-11-06T00:35:25.507Z,92.40
2018-11-06T00:37:53.011Z,92.60
2018-11-06T00:40:20.546Z,93.10
2018-11-06T00:42:48.025Z,93.00
2018-11-06T00:45:16.349Z,93.10
2018-11-06T00:47:43.884Z,93.20
2018-11-06T00:50:12.481Z,93.30
2018-11-06T00:52:41.094Z,93.30
2018-11-06T00:55:09.184Z,93.20
2018-11-06T00:57:37.676Z,93.10
2018-11-06T01:00:07.947Z,92.90
2018-11-06T01:02:35.601Z,92.80
2018-11-06T01:05:03.158Z,92.70
2018-11-06T01:07:30.722Z,92.70
2018-11-06T01:09:58.216Z,92.60
2018-11-06T01:12:25.777Z,92.60
2018-11-06T01:14:53.285Z,92.60
2018-11-06T01:17:20.901Z,92.60
2018-11-06T01:19:48.368Z,92.60
2018-11-06T01:22:15.829Z,92.70
2018-11-06T01:24:43.379Z,92.90
2018-11-06T01:27:10.877Z,93.20
2018-11-06T01:29:38.405Z,92.80
2018-11-06T01:32:05.854Z,93.00
2018-11-06T01:34:33.384Z,92.60
2018-11-06T01:37:00.906Z,92.60
2018-11-06T01:39:28.444Z,92.40
2018-11-06T01:41:55.922Z,92.40
2018-11-06T01:44:23.476Z,92.20
2018-11-06T01:46:50.937Z,92.40
2018-11-06T01:49:18.484Z,92.40
2018-11-06T01:51:46.038Z,92.40
2018-11-06T01:54:13.611Z,92.40
2018-11-06T01:56:41.163Z,92.40
2018-11-06T01:59:08.648Z,93.10
2018-11-06T02:01:36.218Z,93.50
2018-11-06T02:04:03.742Z,93.70
2018-11-06T02:06:31.338Z,93.50
2018-11-06T02:08:58.816Z,93.30
2018-11-06T02:11:26.366Z,93.10
2018-11-06T02:13:53.832Z,93.00
2018-11-06T02:16:21.365Z,93.00
2018-11-06T02:18:48.820Z,92.90
2018-11-06T02:21:16.339Z,92.70
2018-11-06T02:23:43.773Z,92.60
2018-11-06T02:26:11.310Z,92.50
2018-11-06T02:28:38.785Z,92.40
2018-11-06T02:31:06.315Z,92.30
2018-11-06T02:33:33.786Z,92.30
2018-11-06T02:36:01.321Z,92.30
2018-11-06T02:38:28.910Z,92.30
2018-11-06T02:40:56.361Z,92.10
2018-11-06T02:43:23.896Z,92.20
2018-11-06T02:45:51.362Z,92.40
2018-11-06T02:48:18.910Z,92.30
2018-11-06T02:50:46.450Z,92.30
2018-11-06T02:53:14.613Z,92.30
2018-11-06T02:55:42.069Z,92.40
2018-11-06T02:58:09.598Z,92.30
2018-11-06T03:00:37.065Z,92.10
2018-11-06T03:03:04.789Z,92.30
2018-11-06T03:05:32.274Z,93.10
2018-11-06T03:07:59.809Z,93.60
2018-11-06T03:10:27.440Z,93.80
2018-11-06T03:12:54.903Z,93.60
2018-11-06T03:15:22.370Z,93.40
2018-11-06T03:17:49.851Z,93.20
2018-11-06T03:20:17.390Z,92.90
2018-11-06T03:22:45.063Z,93.00
2018-11-06T03:25:12.711Z,92.90
2018-11-06T03:27:40.227Z,92.80
2018-11-06T03:30:10.841Z,92.70
2018-11-06T03:32:38.446Z,92.60
2018-11-06T03:35:06.271Z,92.40
2018-11-06T03:37:33.788Z,92.20
2018-11-06T03:40:01.358Z,92.30
2018-11-06T03:42:28.885Z,92.10
2018-11-06T03:44:56.405Z,92.00
2018-11-06T03:47:23.986Z,92.00
2018-11-06T03:49:51.451Z,91.90
2018-11-06T03:52:19.071Z,92.20
2018-11-06T03:54:46.525Z,91.60
2018-11-06T03:57:14.089Z,91.30
2018-11-06T03:59:41.555Z,91.50
2018-11-06T04:02:09.182Z,91.80
2018-11-06T04:04:36.677Z,91.90
2018-11-06T04:07:04.331Z,91.90
2018-11-06T04:09:31.777Z,91.70
2018-11-06T04:11:59.318Z,91.70
2018-11-06T04:14:26.801Z,91.90
2018-11-06T04:16:54.367Z,91.90
2018-11-06T04:19:21.834Z,92.00
2018-11-06T04:21:49.303Z,92.10
2018-11-06T04:24:16.846Z,92.30
2018-11-06T04:26:44.302Z,92.40
2018-11-06T04:29:11.845Z,92.30
2018-11-06T04:31:39.740Z,92.10
2018-11-06T04:34:07.985Z,92.00
2018-11-06T04:36:35.470Z,91.90
2018-11-06T04:39:04.628Z,91.90
2018-11-06T04:41:32.099Z,91.90
2018-11-06T04:43:59.670Z,91.90
2018-11-06T04:46:27.112Z,91.80
2018-11-06T04:48:54.670Z,91.70
2018-11-06T04:51:22.197Z,91.70
2018-11-06T04:53:49.815Z,91.80
2018-11-06T04:56:17.284Z,91.70
2018-11-06T04:58:44.837Z,91.70
2018-11-06T05:01:12.322Z,91.80
2018-11-06T05:03:46.398Z,91.70
2018-11-06T05:06:14.884Z,91.70
2018-11-06T05:08:42.414Z,91.90
2018-11-06T05:11:09.958Z,92.00
2018-11-06T05:13:37.457Z,91.90
2018-11-06T05:16:05.321Z,91.90
2018-11-06T05:18:32.785Z,91.90
2018-11-06T05:21:00.343Z,92.00
2018-11-06T05:23:27.839Z,92.00
2018-11-06T05:25:55.441Z,91.90
2018-11-06T05:28:22.935Z,92.10
2018-11-06T05:30:50.497Z,92.20
2018-11-06T05:33:17.979Z,92.10
2018-11-06T05:35:45.545Z,92.10
2018-11-06T05:38:13.173Z,92.10
2018-11-06T05:41:05.504Z,92.00
2018-11-06T05:43:33.454Z,92.10
2018-11-06T05:46:01.059Z,91.90
2018-11-06T05:48:28.655Z,92.10
2018-11-06T05:50:56.193Z,92.10
2018-11-06T05:53:23.819Z,92.00
2018-11-06T05:55:51.297Z,92.10
2018-11-06T05:58:18.790Z,92.20
2018-11-06T06:00:46.687Z,92.20
2018-11-06T06:03:14.133Z,92.50
2018-11-06T06:05:41.623Z,92.50
2018-11-06T06:08:09.181Z,92.60
2018-11-06T06:10:36.713Z,92.70
2018-11-06T06:13:04.749Z,92.60
2018-11-06T06:15:32.286Z,92.60
2018-11-06T06:17:59.869Z,92.50
2018-11-06T06:20:27.350Z,92.40
2018-11-06T06:22:54.908Z,92.50
2018-11-06T06:25:22.438Z,92.50
2018-11-06T06:27:50.008Z,92.60
2018-11-06T06:30:17.838Z,92.60
2018-11-06T06:32:45.393Z,92.50
2018-11-06T06:35:12.939Z,92.60
2018-11-06T06:37:40.409Z,92.70
2018-11-06T06:40:10.837Z,92.90
2018-11-06T06:42:38.382Z,92.90
2018-11-06T06:45:07.879Z,92.90
2018-11-06T06:47:35.393Z,92.90
2018-11-06T06:50:03.297Z,92.90
2018-11-06T06:52:30.844Z,92.90
2018-11-06T06:54:58.474Z,92.90
2018-11-06T06:57:25.910Z,92.90
2018-11-06T06:59:53.454Z,92.90
2018-11-06T07:02:20.971Z,93.00
2018-11-06T07:04:48.519Z,93.30
2018-11-06T07:07:15.966Z,93.30
2018-11-06T07:09:43.503Z,93.40
2018-11-06T07:12:10.989Z,93.40
2018-11-06T07:14:38.530Z,93.40
2018-11-06T07:17:06.102Z,93.30
2018-11-06T07:19:33.558Z,93.40
2018-11-06T07:22:01.108Z,93.60
2018-11-06T07:24:28.623Z,93.90
2018-11-06T07:26:56.230Z,94.00
2018-11-06T07:29:23.694Z,94.00
2018-11-06T07:31:51.257Z,94.10
2018-11-06T07:34:18.715Z,94.10
2018-11-06T07:36:46.264Z,94.20
2018-11-06T07:39:13.735Z,94.20
2018-11-06T07:41:41.294Z,94.40
2018-11-06T07:44:09.826Z,94.40
2018-11-06T07:46:37.378Z,94.40
2018-11-06T07:49:05.321Z,94.50
2018-11-06T07:51:32.977Z,94.50
2018-11-06T07:54:00.807Z,94.60
2018-11-06T07:56:28.421Z,94.80
2018-11-06T07:58:55.903Z,94.80
2018-11-06T08:01:23.384Z,95.00
2018-11-06T08:03:50.947Z,95.30
2018-11-06T08:06:18.492Z,95.70
2018-11-06T08:08:45.979Z,96.10
2018-11-06T08:11:13.434Z,96.60
2018-11-06T08:13:41.020Z,97.10
2018-11-06T08:16:08.523Z,97.60
2018-11-06T08:18:36.111Z,97.70
2018-11-06T08:21:03.711Z,97.40
2018-11-06T08:23:31.301Z,97.70
2018-11-06T08:25:58.786Z,97.90
2018-11-06T08:28:26.352Z,98.60
2018-11-06T08:30:54.308Z,98.90
2018-11-06T08:33:21.466Z,98.70
2018-11-06T08:35:49.006Z,98.50
2018-11-06T08:38:16.475Z,97.90
2018-11-06T08:40:44.034Z,98.00
2018-11-06T08:43:11.535Z,97.30
2018-11-06T08:45:39.012Z,97.10
2018-11-06T08:48:06.618Z,96.20
2018-11-06T08:50:34.151Z,96.40
2018-11-06T08:53:02.932Z,96.80
2018-11-06T08:55:30.391Z,97.60
2018-11-06T08:57:57.938Z,97.40
2018-11-06T09:00:25.452Z,96.50
2018-11-06T09:02:53.031Z,95.00
2018-11-06T09:05:21.634Z,95.00
2018-11-06T09:07:49.228Z,94.50
2018-11-06T09:10:17.267Z,94.30
2018-11-06T09:12:44.794Z,93.50
2018-11-06T09:15:13.489Z,93.20
2018-11-06T09:17:41.007Z,93.40
2018-11-06T09:20:10.053Z,93.30
2018-11-06T09:22:37.626Z,92.70
2018-11-06T09:25:06.489Z,92.20
2018-11-06T09:27:33.999Z,92.50
2018-11-06T09:30:01.542Z,92.10
2018-11-06T09:32:29.101Z,92.40
2018-11-06T09:34:56.593Z,92.60
2018-11-06T09:37:24.185Z,92.60
2018-11-06T09:39:51.683Z,92.60
2018-11-06T09:42:19.160Z,92.80
2018-11-06T09:44:46.731Z,92.80
2018-11-06T09:47:14.229Z,93.10
2018-11-06T09:49:41.790Z,92.80
2018-11-06T09:52:09.461Z,93.00
2018-11-06T09:54:36.890Z,93.00
2018-11-06T09:57:04.490Z,93.00
2018-11-06T09:59:31.951Z,92.90
2018-11-06T10:01:59.489Z,92.80
2018-11-06T10:04:26.965Z,92.90
2018-11-06T10:06:54.781Z,92.40
2018-11-06T10:09:22.165Z,92.20
2018-11-06T10:11:49.599Z,92.50
2018-11-06T10:14:17.139Z,92.90
2018-11-06T10:16:44.626Z,92.30
2018-11-06T10:19:12.182Z,92.00
2018-11-06T10:21:39.655Z,92.00
2018-11-06T10:24:07.238Z,92.10
2018-11-06T10:26:34.773Z,92.40
2018-11-06T10:29:02.924Z,92.40
2018-11-06T10:31:30.526Z,92.30
2018-11-06T10:33:58.059Z,92.20
2018-11-06T10:36:25.576Z,92.20
2018-11-06T10:38:53.123Z,91.50
2018-11-06T10:41:20.642Z,91.80
2018-11-06T10:43:48.232Z,91.20
2018-11-06T10:46:15.757Z,91.80
2018-11-06T10:48:43.300Z,91.40
2018-11-06T10:51:10.960Z,90.90
2018-11-06T10:53:38.448Z,91.20
2018-11-06T10:56:06.033Z,91.40
2018-11-06T10:58:33.521Z,91.10
2018-11-06T11:01:06.704Z,90.20
2018-11-06T11:03:39.902Z,90.30
2018-11-06T11:06:07.626Z,90.30
2018-11-06T11:08:35.121Z,88.20
2018-11-06T11:11:02.668Z,89.60
2018-11-06T11:13:30.362Z,88.90
2018-11-06T11:15:57.852Z,86.70
2018-11-06T11:18:25.336Z,86.90
2018-11-06T11:20:52.915Z,87.90
2018-11-06T11:23:20.430Z,87.40
2018-11-06T11:25:47.919Z,87.00
2018-11-06T11:28:15.468Z,87.90
2018-11-06T11:30:42.938Z,88.00
2018-11-06T11:33:10.504Z,87.40
2018-11-06T11:35:37.994Z,86.60
2018-11-06T11:38:05.542Z,86.40
2018-11-06T11:40:32.998Z,85.50
2018-11-06T11:43:00.985Z,85.00
2018-11-06T11:45:28.486Z,84.90
2018-11-06T11:47:56.082Z,85.20
2018-11-06T11:50:23.652Z,85.80
2018-11-06T11:52:51.239Z,85.10
2018-11-06T11:55:18.778Z,84.20
2018-11-06T11:57:46.373Z,85.30
2018-11-06T12:00:16.545Z,83.60
2018-11-06T12:02:43.904Z,84.50
2018-11-06T12:05:11.766Z,82.20
2018-11-06T12:07:39.403Z,82.50
2018-11-06T12:10:08.385Z,80.80
2018-11-06T12:12:35.933Z,82.00
2018-11-06T12:15:03.976Z,81.00
2018-11-06T12:17:31.565Z,80.40
2018-11-06T12:19:59.050Z,79.90
2018-11-06T12:22:26.529Z,80.20
2018-11-06T12:24:54.210Z,79.90
2018-11-06T12:27:21.598Z,81.30
2018-11-06T12:29:49.178Z,81.70
2018-11-06T12:32:16.669Z,80.70
2018-11-06T12:34:44.249Z,81.90
2018-11-06T12:37:11.735Z,80.70
2018-11-06T12:39:39.341Z,80.40
2018-11-06T12:42:06.932Z,78.40
2018-11-06T12:44:34.415Z,80.10
2018-11-06T12:47:02.011Z,80.70
2018-11-06T12:49:29.518Z,80.50
2018-11-06T12:51:57.242Z,79.70
2018-11-06T12:54:24.759Z,79.80
2018-11-06T12:56:52.343Z,80.00
2018-11-06T12:59:19.826Z,77.80
2018-11-06T13:01:47.403Z,80.50
2018-11-06T13:04:14.898Z,79.00
2018-11-06T13:06:42.499Z,80.00
2018-11-06T13:09:11.025Z,78.40
2018-11-06T13:11:38.937Z,79.10
2018-11-06T13:14:07.058Z,78.80
2018-11-06T13:16:34.700Z,78.10
2018-11-06T13:19:02.438Z,78.50
2018-11-06T13:21:29.998Z,78.60
2018-11-06T13:23:57.558Z,78.20
2018-11-06T13:26:25.209Z,77.40
2018-11-06T13:28:52.693Z,77.40
2018-11-06T13:31:20.191Z,78.20
2018-11-06T13:33:47.888Z,77.90
2018-11-06T13:36:15.398Z,77.60
2018-11-06T13:38:42.971Z,78.50
2018-11-06T13:41:10.473Z,79.40
2018-11-06T13:43:38.284Z,79.00
2018-11-06T13:46:05.667Z,79.20
2018-11-06T13:48:33.215Z,79.20
2018-11-06T13:51:00.801Z,79.60
2018-11-06T13:53:28.380Z,79.80
2018-11-06T13:55:55.940Z,80.20
2018-11-06T13:58:23.438Z,79.00
2018-11-06T14:00:51.047Z,79.20
2018-11-06T14:03:18.530Z,79.70
2018-11-06T14:05:46.110Z,80.10
2018-11-06T14:08:13.679Z,79.90
2018-11-06T14:10:41.343Z,79.70
2018-11-06T14:13:08.844Z,78.80
2018-11-06T14:15:36.420Z,79.10
2018-11-06T14:18:03.992Z,78.80
2018-11-06T14:20:31.537Z,79.20
2018-11-06T14:22:59.059Z,79.30
2018-11-06T14:25:26.647Z,79.60
2018-11-06T14:27:54.158Z,79.80
2018-11-06T14:30:21.667Z,79.80
2018-11-06T14:32:49.270Z,79.90
2018-11-06T14:35:17.843Z,80.70
2018-11-06T14:37:46.033Z,80.40
2018-11-06T14:40:14.139Z,80.20
2018-11-06T14:42:42.307Z,80.30
2018-11-06T14:45:11.303Z,80.30
2018-11-06T14:47:38.896Z,80.10
2018-11-06T14:50:07.154Z,80.00
2018-11-06T14:52:35.006Z,79.50
2018-11-06T14:55:02.707Z,80.40
2018-11-06T14:57:30.290Z,80.80
2018-11-06T14:59:57.811Z,80.80
2018-11-06T15:02:26.152Z,80.70
2018-11-06T15:04:54.653Z,80.80
2018-11-06T15:07:22.606Z,80.90
2018-11-06T15:09:50.192Z,81.50
2018-11-06T15:12:17.774Z,81.70
2018-11-06T15:14:45.390Z,81.80
2018-11-06T15:17:13.022Z,82.00
2018-11-06T15:19:40.528Z,82.30
2018-11-06T15:22:08.136Z,82.60
2018-11-06T15:24:35.671Z,82.70
2018-11-06T15:27:03.206Z,83.20
2018-11-06T15:29:30.807Z,83.60
2018-11-06T15:31:58.313Z,83.90
2018-11-06T15:34:25.920Z,84.20
2018-11-06T15:36:53.446Z,84.70
2018-11-06T15:39:21.136Z,84.70
2018-11-06T15:41:48.628Z,84.80
2018-11-06T15:44:16.163Z,84.90
2018-11-06T15:46:43.674Z,84.80
2018-11-06T15:49:11.371Z,85.50
2018-11-06T15:51:38.906Z,86.20
2018-11-06T15:54:06.601Z,86.50
2018-11-06T15:56:34.093Z,86.70
2018-11-06T15:59:02.149Z,87.10
2018-11-06T16:01:29.673Z,88.20
2018-11-06T16:03:57.158Z,88.60
2018-11-06T16:06:24.792Z,89.30
2018-11-06T16:08:52.291Z,90.10
2018-11-06T16:11:20.368Z,90.60
2018-11-06T16:13:47.883Z,91.30
2018-11-06T16:16:15.490Z,91.40
2018-11-06T16:18:42.971Z,91.80
2018-11-06T16:21:10.527Z,92.20
2018-11-06T16:23:38.038Z,92.40
2018-11-06T16:26:05.657Z,92.70
2018-11-06T16:28:33.185Z,92.90
2018-11-06T16:31:00.714Z,93.10
2018-11-06T16:33:28.332Z,93.50
2018-11-06T16:35:55.850Z,94.10
2018-11-06T16:38:23.418Z,94.40
2018-11-06T16:40:50.927Z,94.40
2018-11-06T16:43:18.510Z,94.50
2018-11-06T16:45:46.086Z,94.30
2018-11-06T16:48:13.776Z,94.10
2018-11-06T16:50:41.375Z,93.90
2018-11-06T16:53:08.954Z,93.50
2018-11-06T16:55:36.493Z,93.10
2018-11-06T16:58:04.144Z,92.80
2018-11-06T17:00:31.654Z,92.60
2018-11-06T17:02:59.285Z,92.10
2018-11-06T17:05:26.778Z,91.80
2018-11-06T17:07:54.351Z,91.70
2018-11-06T17:10:21.863Z,91.40
2018-11-06T17:12:49.353Z,91.50
2018-11-06T17:15:18.246Z,91.20
2018-11-06T17:17:46.668Z,91.10
2018-11-06T17:20:14.921Z,91.20
2018-11-06T17:22:42.453Z,91.20
2018-11-06T17:25:13.339Z,91.20
2018-11-06T17:27:40.907Z,91.10
2018-11-06T17:30:10.563Z,91.20
2018-11-06T17:32:38.911Z,91.30
2018-11-06T17:35:07.885Z,91.40
2018-11-06T17:37:35.822Z,91.50
2018-11-06T17:40:03.650Z,91.50
2018-11-06T17:42:31.136Z,91.40
2018-11-06T17:44:58.730Z,91.40
2018-11-06T17:47:26.225Z,91.50
2018-11-06T17:49:53.862Z,91.60
2018-11-06T17:52:21.456Z,91.50
2018-11-06T17:54:49.074Z,91.50
2018-11-06T17:57:16.747Z,91.50
2018-11-06T17:59:44.341Z,91.70
2018-11-06T18:02:11.993Z,91.80
2018-11-06T18:04:39.548Z,91.80
2018-11-06T18:07:07.131Z,91.80
2018-11-06T18:09:34.624Z,91.90
2018-11-06T18:12:02.338Z,92.00
2018-11-06T18:14:29.887Z,92.10
2018-11-06T18:16:57.498Z,92.20
2018-11-06T18:19:25.057Z,92.30
2018-11-06T18:21:52.700Z,92.30
2018-11-06T18:24:20.214Z,92.30
2018-11-06T18:26:47.824Z,92.30
2018-11-06T18:29:15.362Z,92.40
2018-11-06T18:31:42.968Z,92.30
2018-11-06T18:34:10.539Z,92.50
2018-11-06T18:36:38.125Z,92.30
2018-11-06T18:39:09.103Z,92.20
2018-11-06T18:41:36.710Z,92.20
2018-11-06T18:44:04.411Z,92.20
2018-11-06T18:46:32.990Z,92.10
2018-11-06T18:49:00.827Z,92.00
2018-11-06T18:51:29.463Z,91.70
2018-11-06T18:53:57.118Z,91.60
2018-11-06T18:56:24.635Z,91.80
2018-11-06T18:58:52.250Z,91.50
2018-11-06T19:01:19.772Z,91.30
2018-11-06T19:03:47.382Z,91.20
2018-11-06T19:06:14.895Z,90.90
2018-11-06T19:08:42.520Z,90.80
2018-11-06T19:11:10.098Z,90.70
2018-11-06T19:13:37.705Z,90.60
2018-11-06T19:16:05.331Z,90.60
2018-11-06T19:18:33.004Z,90.50
2018-11-06T19:21:01.078Z,91.00
2018-11-06T19:23:28.701Z,90.70
2018-11-06T19:25:56.284Z,90.60
2018-11-06T19:28:23.825Z,90.40
2018-11-06T19:30:51.422Z,90.40
2018-11-06T19:33:18.934Z,90.40
2018-11-06T19:35:46.541Z,90.20
2018-11-06T19:38:14.099Z,90.40
2018-11-06T19:40:41.787Z,90.50
2018-11-06T19:43:09.212Z,90.50
2018-11-06T19:45:36.861Z,90.50
2018-11-06T19:48:04.671Z,90.60
2018-11-06T19:50:32.358Z,90.60
2018-11-06T19:53:00.030Z,91.40
2018-11-06T19:55:27.718Z,91.40
2018-11-06T19:57:55.334Z,91.50
2018-11-06T20:00:23.226Z,91.50
2018-11-06T20:02:51.913Z,91.20
2018-11-06T20:05:19.869Z,91.30
2018-11-06T20:07:48.460Z,91.10
2018-11-06T20:10:17.471Z,91.00
2018-11-06T20:12:46.054Z,90.80
2018-11-06T20:15:14.503Z,90.60
2018-11-06T20:17:42.621Z,90.60
2018-11-06T20:20:13.606Z,90.60
2018-11-06T20:22:41.216Z,90.50
2018-11-06T20:25:09.426Z,90.40
2018-11-06T20:27:37.108Z,90.30
2018-11-06T20:30:05.978Z,90.50
2018-11-06T20:32:33.628Z,90.40
2018-11-06T20:35:01.768Z,90.30
2018-11-06T20:37:29.516Z,90.20
2018-11-06T20:39:56.934Z,90.30
2018-11-06T20:42:24.551Z,90.30
2018-11-06T20:44:52.049Z,90.20
2018-11-06T20:47:19.657Z,90.10
2018-11-06T20:49:47.264Z,90.40
2018-11-06T20:52:14.906Z,90.50
2018-11-06T20:54:42.516Z,90.50
2018-11-06T20:57:10.053Z,90.60
2018-11-06T20:59:37.658Z,90.50
2018-11-06T21:02:05.375Z,90.50
2018-11-06T21:04:32.994Z,90.70
2018-11-06T21:07:00.966Z,90.70
2018-11-06T21:09:28.588Z,90.70
2018-11-06T21:11:56.200Z,90.60
2018-11-06T21:14:23.822Z,90.80
2018-11-06T21:16:51.377Z,90.80
2018-11-06T21:19:18.965Z,90.60
2018-11-06T21:21:46.569Z,90.60
2018-11-06T21:24:14.192Z,90.50
2018-11-06T21:26:41.760Z,90.50
2018-11-06T21:29:09.245Z,90.60
2018-11-06T21:31:37.993Z,90.50
2018-11-06T21:34:05.629Z,90.60
2018-11-06T21:36:33.189Z,90.60
2018-11-06T21:39:00.840Z,90.60
2018-11-06T21:41:28.462Z,90.50
2018-11-06T21:43:56.045Z,90.70
2018-11-06T21:46:23.681Z,90.60
2018-11-06T21:48:51.248Z,90.60
2018-11-06T21:51:18.876Z,90.60
2018-11-06T21:53:46.478Z,90.60
2018-11-06T21:56:14.105Z,90.50
2018-11-06T21:58:41.812Z,90.60
2018-11-06T22:01:09.330Z,90.60
2018-11-06T22:03:36.997Z,90.50
2018-11-06T22:06:04.553Z,90.50
2018-11-06T22:08:32.156Z,90.50
2018-11-06T22:10:59.714Z,90.80
2018-11-06T22:13:27.335Z,91.20
2018-11-06T22:15:54.876Z,91.00
2018-11-06T22:18:22.471Z,91.00
2018-11-06T22:20:49.963Z,90.80
2018-11-06T22:23:17.521Z,90.80
2018-11-06T22:25:45.116Z,90.70
2018-11-06T22:28:12.673Z,90.70
2018-11-06T22:30:40.241Z,90.80
2018-11-06T22:33:07.911Z,90.80
2018-11-06T22:35:35.352Z,91.10
2018-11-06T22:38:02.930Z,91.20
2018-11-06T22:40:30.449Z,91.20
2018-11-06T22:42:57.954Z,91.20
2018-11-06T22:45:25.500Z,91.10
2018-11-06T22:47:52.986Z,91.00
2018-11-06T22:50:20.635Z,90.90
2018-11-06T22:52:48.628Z,90.90
2018-11-06T22:55:16.438Z,90.90
2018-11-06T22:57:44.088Z,90.80
2018-11-06T23:00:17.101Z,91.10
2018-11-06T23:02:44.632Z,91.00
2018-11-06T23:05:12.529Z,91.00
2018-11-06T23:07:45.510Z,91.40
2018-11-06T23:10:13.228Z,91.50
2018-11-06T23:12:40.951Z,91.50
2018-11-06T23:15:08.578Z,91.80
2018-11-06T23:17:36.072Z,91.90
2018-11-06T23:20:03.820Z,91.90
2018-11-06T23:22:31.392Z,91.80
2018-11-06T23:24:58.959Z,91.70
2018-11-06T23:27:26.505Z,91.60
2018-11-06T23:29:53.997Z,91.70
2018-11-06T23:32:21.553Z,91.90
2018-11-06T23:34:49.024Z,91.90
2018-11-06T23:37:16.582Z,92.10
2018-11-06T23:39:44.033Z,92.00
2018-11-06T23:42:11.600Z,91.90
2018-11-06T23:44:39.101Z,91.70
2018-11-06T23:47:06.685Z,91.70
2018-11-06T23:49:34.133Z,91.80
2018-11-06T23:52:02.003Z,91.80
2018-11-06T23:54:29.509Z,91.80
2018-11-06T23:56:57.074Z,91.90
2018-11-06T23:59:24.534Z,91.90
